Aérodrome :
LOGIN :

S'inscrire | Disclaimer

   EN    FR    IT 

 










Légende :    VFR   VFR Marginal   IFR   IFR Intensif   IFR Très Intensif
Visi : 
Plafond : 
>= 8 km
>= 3000ft
5 à 8 km
1000 à 3000 ft
1500m à 5 km
500 à 1000 ft
800 à 1500m
200 à 500 ft
< 800m
< 200 ft
Symboles :   Orages  Brouillard  Fortes neiges  Fortes précipitations  Vent > 20 kt
SIGMETs :   Divers  Orages  Givrage  Turbulence  Onde Orograph.  Cendres Volcan.






- Altitude de l'aérodrome : 614 ft
- Code IATA : CRL


EBCI - Charleroi

DERNIER METAR :
  • 230120Z 11008KT 9999 FEW041 07/02 Q0996 NOSIG

METARs EXPIRÉS :
  • 230050Z 11010KT CAVOK 07/02 Q0996 NOSIG
  • 230020Z 11009KT CAVOK 07/02 Q0996 NOSIG
  • 222350Z 11009KT CAVOK 08/02 Q0997 NOSIG
  • 222320Z 12008KT CAVOK 08/02 Q0997 NOSIG
  • 222250Z 12007KT CAVOK 08/03 Q0998 NOSIG

TAF TAF EBCI
Valide du 23 à 00h jusqu'au 24 à 06h UTC


222310Z 2300/2406 12009KT CAVOK
BECMG 2402/2404 4000 BR



MET'MAP, la Météo Aéronautique d'un coup d'oeil ! - Copyright ORBIFLY Décembre 2007 - Disclaimer

ORBIFLY MET'MAP TEAM :

Programmation & Développement : Alexandra Zaïnal
Conception & Développement : Baudouin d'Aumeries
Co-Programmation & Développement : Marc-Olivier Méhu
Soutien technique & logistique : Manuel Goepfert

Contact : metmap@orbifly.com




SOURCES & CREDITS :

   NOAA